sensor_id;sensor_type;location;lat;lon;timestamp;pressure;altitude;pressure_sealevel;temperature;humidity
24762;BME280;12865;51.934;10.330;2023-04-27T00:01:24;99446.34;;;5.31;96.45
24762;BME280;12865;51.934;10.330;2023-04-27T00:04:09;99448.72;;;5.22;96.91
24762;BME280;12865;51.934;10.330;2023-04-27T00:06:55;99442.16;;;5.14;97.94
24762;BME280;12865;51.934;10.330;2023-04-27T00:09:41;99446.41;;;5.17;97.86
24762;BME280;12865;51.934;10.330;2023-04-27T00:12:26;99448.09;;;5.18;97.57
24762;BME280;12865;51.934;10.330;2023-04-27T00:15:13;99444.81;;;5.14;97.90
24762;BME280;12865;51.934;10.330;2023-04-27T00:17:59;99450.09;;;5.14;97.67
24762;BME280;12865;51.934;10.330;2023-04-27T00:20:45;99446.16;;;5.07;97.54
24762;BME280;12865;51.934;10.330;2023-04-27T00:23:31;99445.69;;;5.01;98.34
24762;BME280;12865;51.934;10.330;2023-04-27T00:26:17;99449.28;;;5.00;98.87
24762;BME280;12865;51.934;10.330;2023-04-27T00:29:02;99457.69;;;4.92;98.85
24762;BME280;12865;51.934;10.330;2023-04-27T00:31:48;99453.56;;;4.88;99.16
24762;BME280;12865;51.934;10.330;2023-04-27T00:34:34;99447.44;;;4.88;99.27
24762;BME280;12865;51.934;10.330;2023-04-27T00:37:19;99453.38;;;4.77;100.00
24762;BME280;12865;51.934;10.330;2023-04-27T00:40:06;99452.28;;;4.67;100.00
24762;BME280;12865;51.934;10.330;2023-04-27T00:42:52;99450.50;;;4.67;100.00
24762;BME280;12865;51.934;10.330;2023-04-27T00:45:41;99448.72;;;4.68;100.00
24762;BME280;12865;51.934;10.330;2023-04-27T00:48:27;99451.66;;;4.49;100.00
24762;BME280;12865;51.934;10.330;2023-04-27T00:51:13;99450.34;;;4.42;100.00
24762;BME280;12865;51.934;10.330;2023-04-27T00:53:59;99449.13;;;4.48;100.00
24762;BME280;12865;51.934;10.330;2023-04-27T00:56:50;99456.28;;;4.31;100.00
24762;BME280;12865;51.934;10.330;2023-04-27T00:59:35;99457.31;;;4.29;100.00
24762;BME280;12865;51.934;10.330;2023-04-27T01:02:21;99456.28;;;4.17;100.00
24762;BME280;12865;51.934;10.330;2023-04-27T01:05:08;99460.34;;;4.23;100.00
24762;BME280;12865;51.934;10.330;2023-04-27T01:07:54;99452.03;;;4.15;100.00
24762;BME280;12865;51.934;10.330;2023-04-27T01:10:40;99467.22;;;4.11;100.00
24762;BME280;12865;51.934;10.330;2023-04-27T01:13:25;99462.03;;;4.10;100.00
24762;BME280;12865;51.934;10.330;2023-04-27T01:16:11;99456.38;;;4.02;100.00
24762;BME280;12865;51.934;10.330;2023-04-27T01:18:57;99467.59;;;4.05;100.00
24762;BME280;12865;51.934;10.330;2023-04-27T01:21:43;99460.31;;;3.94;100.00
24762;BME280;12865;51.934;10.330;2023-04-27T01:24:28;99458.06;;;3.88;100.00
24762;BME280;12865;51.934;10.330;2023-04-27T01:27:14;99455.88;;;3.95;100.00
24762;BME280;12865;51.934;10.330;2023-04-27T01:30:00;99461.53;;;3.89;100.00
24762;BME280;12865;51.934;10.330;2023-04-27T01:32:45;99468.03;;;3.83;100.00
24762;BME280;12865;51.934;10.330;2023-04-27T01:35:31;99473.69;;;3.77;100.00
24762;BME280;12865;51.934;10.330;2023-04-27T01:38:17;99472.34;;;3.70;100.00
24762;BME280;12865;51.934;10.330;2023-04-27T01:41:03;99472.44;;;3.69;100.00
24762;BME280;12865;51.934;10.330;2023-04-27T01:43:49;99464.53;;;3.83;100.00
24762;BME280;12865;51.934;10.330;2023-04-27T01:46:35;99475.91;;;3.69;100.00
24762;BME280;12865;51.934;10.330;2023-04-27T01:49:20;99475.91;;;3.69;100.00
24762;BME280;12865;51.934;10.330;2023-04-27T01:52:06;99481.78;;;3.59;100.00
24762;BME280;12865;51.934;10.330;2023-04-27T01:54:51;99480.28;;;3.54;100.00
24762;BME280;12865;51.934;10.330;2023-04-27T01:57:37;99477.16;;;3.48;100.00
24762;BME280;12865;51.934;10.330;2023-04-27T02:00:23;99484.75;;;3.38;100.00
24762;BME280;12865;51.934;10.330;2023-04-27T02:03:08;99494.34;;;3.39;100.00
24762;BME280;12865;51.934;10.330;2023-04-27T02:05:54;99497.06;;;3.38;100.00
24762;BME280;12865;51.934;10.330;2023-04-27T02:08:40;99502.34;;;3.38;100.00
24762;BME280;12865;51.934;10.330;2023-04-27T02:11:25;99506.38;;;3.29;100.00
24762;BME280;12865;51.934;10.330;2023-04-27T02:14:11;99501.00;;;3.31;100.00
24762;BME280;12865;51.934;10.330;2023-04-27T02:16:57;99510.34;;;3.36;100.00
24762;BME280;12865;51.934;10.330;2023-04-27T02:19:43;99508.91;;;3.31;100.00
24762;BME280;12865;51.934;10.330;2023-04-27T02:22:29;99517.66;;;3.31;100.00
24762;BME280;12865;51.934;10.330;2023-04-27T02:25:14;99516.63;;;3.34;100.00
24762;BME280;12865;51.934;10.330;2023-04-27T02:28:00;99521.72;;;3.37;100.00
24762;BME280;12865;51.934;10.330;2023-04-27T02:30:46;99525.19;;;3.37;100.00
24762;BME280;12865;51.934;10.330;2023-04-27T02:33:31;99523.91;;;3.44;100.00
24762;BME280;12865;51.934;10.330;2023-04-27T02:36:17;99529.47;;;3.40;100.00
24762;BME280;12865;51.934;10.330;2023-04-27T02:39:03;99523.78;;;3.32;100.00
24762;BME280;12865;51.934;10.330;2023-04-27T02:41:48;99523.41;;;3.38;100.00
24762;BME280;12865;51.934;10.330;2023-04-27T02:44:34;99528.88;;;3.35;100.00
24762;BME280;12865;51.934;10.330;2023-04-27T02:47:19;99532.09;;;3.40;100.00
24762;BME280;12865;51.934;10.330;2023-04-27T02:50:06;99525.69;;;3.44;100.00
24762;BME280;12865;51.934;10.330;2023-04-27T02:52:51;99537.34;;;3.55;100.00
24762;BME280;12865;51.934;10.330;2023-04-27T02:55:44;99537.59;;;3.51;100.00
24762;BME280;12865;51.934;10.330;2023-04-27T02:58:31;99536.31;;;3.58;100.00
24762;BME280;12865;51.934;10.330;2023-04-27T03:01:17;99542.44;;;3.59;100.00
24762;BME280;12865;51.934;10.330;2023-04-27T03:04:02;99532.72;;;3.59;100.00
24762;BME280;12865;51.934;10.330;2023-04-27T03:06:48;99542.19;;;3.63;100.00
24762;BME280;12865;51.934;10.330;2023-04-27T03:09:34;99537.00;;;3.62;100.00
24762;BME280;12865;51.934;10.330;2023-04-27T03:12:19;99537.16;;;3.59;100.00
24762;BME280;12865;51.934;10.330;2023-04-27T03:15:05;99539.53;;;3.63;100.00
24762;BME280;12865;51.934;10.330;2023-04-27T03:17:52;99539.28;;;3.68;100.00
24762;BME280;12865;51.934;10.330;2023-04-27T03:20:37;99542.59;;;3.71;100.00
24762;BME280;12865;51.934;10.330;2023-04-27T03:23:23;99532.88;;;3.72;100.00
24762;BME280;12865;51.934;10.330;2023-04-27T03:26:10;99529.97;;;3.76;100.00
24762;BME280;12865;51.934;10.330;2023-04-27T03:28:56;99533.34;;;3.64;100.00
24762;BME280;12865;51.934;10.330;2023-04-27T03:31:42;99539.44;;;3.65;100.00
24762;BME280;12865;51.934;10.330;2023-04-27T03:34:27;99538.25;;;3.70;100.00
24762;BME280;12865;51.934;10.330;2023-04-27T03:37:13;99532.28;;;3.67;100.00
24762;BME280;12865;51.934;10.330;2023-04-27T03:39:59;99538.91;;;3.74;100.00
24762;BME280;12865;51.934;10.330;2023-04-27T03:42:45;99538.75;;;3.77;100.00
24762;BME280;12865;51.934;10.330;2023-04-27T03:45:30;99537.81;;;3.78;100.00
24762;BME280;12865;51.934;10.330;2023-04-27T03:48:16;99538.47;;;3.81;100.00
24762;BME280;12865;51.934;10.330;2023-04-27T03:51:02;99539.03;;;3.86;100.00
24762;BME280;12865;51.934;10.330;2023-04-27T03:53:48;99541.59;;;3.88;100.00
24762;BME280;12865;51.934;10.330;2023-04-27T03:56:33;99546.41;;;3.95;100.00
24762;BME280;12865;51.934;10.330;2023-04-27T03:59:19;99542.09;;;3.94;100.00
24762;BME280;12865;51.934;10.330;2023-04-27T04:02:05;99540.97;;;3.99;100.00
24762;BME280;12865;51.934;10.330;2023-04-27T04:04:50;99541.84;;;3.99;100.00
24762;BME280;12865;51.934;10.330;2023-04-27T04:07:36;99538.22;;;4.00;100.00
24762;BME280;12865;51.934;10.330;2023-04-27T04:10:23;99551.16;;;4.05;100.00
24762;BME280;12865;51.934;10.330;2023-04-27T04:13:08;99544.75;;;4.09;100.00
24762;BME280;12865;51.934;10.330;2023-04-27T04:16:07;99548.31;;;4.08;100.00
24762;BME280;12865;51.934;10.330;2023-04-27T04:18:53;99552.66;;;4.09;100.00
24762;BME280;12865;51.934;10.330;2023-04-27T04:21:39;99555.88;;;4.14;100.00
24762;BME280;12865;51.934;10.330;2023-04-27T04:24:25;99546.09;;;4.16;100.00
24762;BME280;12865;51.934;10.330;2023-04-27T04:27:10;99554.84;;;4.16;100.00
24762;BME280;12865;51.934;10.330;2023-04-27T04:29:56;99546.84;;;4.18;100.00
24762;BME280;12865;51.934;10.330;2023-04-27T04:32:44;99553.16;;;4.15;100.00
24762;BME280;12865;51.934;10.330;2023-04-27T04:35:30;99556.34;;;4.06;100.00
24762;BME280;12865;51.934;10.330;2023-04-27T04:38:17;99560.00;;;4.04;100.00
24762;BME280;12865;51.934;10.330;2023-04-27T04:41:03;99560.78;;;4.06;100.00
24762;BME280;12865;51.934;10.330;2023-04-27T04:43:48;99566.91;;;4.06;100.00
24762;BME280;12865;51.934;10.330;2023-04-27T04:46:34;99549.38;;;4.05;100.00
24762;BME280;12865;51.934;10.330;2023-04-27T04:49:21;99554.91;;;4.01;100.00
24762;BME280;12865;51.934;10.330;2023-04-27T04:52:07;99558.31;;;4.03;100.00
24762;BME280;12865;51.934;10.330;2023-04-27T04:54:53;99561.97;;;4.00;100.00
24762;BME280;12865;51.934;10.330;2023-04-27T04:57:38;99568.44;;;3.94;100.00
24762;BME280;12865;51.934;10.330;2023-04-27T05:00:24;99570.94;;;3.98;100.00
24762;BME280;12865;51.934;10.330;2023-04-27T05:03:09;99574.00;;;3.90;100.00
24762;BME280;12865;51.934;10.330;2023-04-27T05:05:55;99576.56;;;3.91;100.00
24762;BME280;12865;51.934;10.330;2023-04-27T05:08:41;99580.78;;;3.94;100.00
24762;BME280;12865;51.934;10.330;2023-04-27T05:11:27;99576.06;;;3.85;100.00
24762;BME280;12865;51.934;10.330;2023-04-27T05:14:12;99580.22;;;3.89;100.00
24762;BME280;12865;51.934;10.330;2023-04-27T05:16:58;99577.91;;;3.99;100.00
24762;BME280;12865;51.934;10.330;2023-04-27T05:19:43;99584.69;;;4.03;100.00
24762;BME280;12865;51.934;10.330;2023-04-27T05:22:29;99584.97;;;3.98;100.00
24762;BME280;12865;51.934;10.330;2023-04-27T05:25:15;99584.56;;;3.90;100.00
24762;BME280;12865;51.934;10.330;2023-04-27T05:28:00;99586.16;;;3.92;100.00
24762;BME280;12865;51.934;10.330;2023-04-27T05:30:46;99600.50;;;4.03;100.00
24762;BME280;12865;51.934;10.330;2023-04-27T05:33:32;99589.78;;;4.06;100.00
24762;BME280;12865;51.934;10.330;2023-04-27T05:36:18;99601.69;;;4.13;100.00
24762;BME280;12865;51.934;10.330;2023-04-27T05:39:03;99594.63;;;4.13;100.00
24762;BME280;12865;51.934;10.330;2023-04-27T05:41:49;99610.69;;;4.09;100.00
24762;BME280;12865;51.934;10.330;2023-04-27T05:44:35;99603.31;;;4.00;100.00
24762;BME280;12865;51.934;10.330;2023-04-27T05:47:20;99604.66;;;4.07;100.00
24762;BME280;12865;51.934;10.330;2023-04-27T05:50:07;99609.84;;;4.08;100.00
24762;BME280;12865;51.934;10.330;2023-04-27T05:52:52;99619.19;;;4.14;100.00
24762;BME280;12865;51.934;10.330;2023-04-27T05:55:38;99620.53;;;4.21;100.00
24762;BME280;12865;51.934;10.330;2023-04-27T05:58:24;99620.56;;;4.35;100.00
24762;BME280;12865;51.934;10.330;2023-04-27T06:01:09;99615.16;;;4.52;100.00
24762;BME280;12865;51.934;10.330;2023-04-27T06:03:55;99622.25;;;4.66;100.00
24762;BME280;12865;51.934;10.330;2023-04-27T06:06:45;99613.84;;;4.73;100.00
24762;BME280;12865;51.934;10.330;2023-04-27T06:09:31;99621.56;;;4.91;100.00
24762;BME280;12865;51.934;10.330;2023-04-27T06:12:16;99616.13;;;4.94;100.00
24762;BME280;12865;51.934;10.330;2023-04-27T06:15:03;99626.31;;;5.00;100.00
24762;BME280;12865;51.934;10.330;2023-04-27T06:17:52;99624.34;;;5.03;100.00
24762;BME280;12865;51.934;10.330;2023-04-27T06:20:38;99631.19;;;5.34;98.94
24762;BME280;12865;51.934;10.330;2023-04-27T06:23:24;99639.28;;;5.45;96.62
24762;BME280;12865;51.934;10.330;2023-04-27T06:26:09;99634.00;;;5.45;96.88
24762;BME280;12865;51.934;10.330;2023-04-27T06:28:55;99639.09;;;5.48;96.54
24762;BME280;12865;51.934;10.330;2023-04-27T06:31:41;99634.00;;;5.45;96.25
24762;BME280;12865;51.934;10.330;2023-04-27T06:34:26;99646.38;;;5.45;96.30
24762;BME280;12865;51.934;10.330;2023-04-27T06:37:12;99647.38;;;5.57;95.22
24762;BME280;12865;51.934;10.330;2023-04-27T06:39:59;99654.78;;;5.51;95.67
24762;BME280;12865;51.934;10.330;2023-04-27T06:42:45;99651.25;;;5.65;94.05
24762;BME280;12865;51.934;10.330;2023-04-27T06:45:31;99641.06;;;5.86;90.61
24762;BME280;12865;51.934;10.330;2023-04-27T06:48:16;99646.59;;;5.69;91.79
24762;BME280;12865;51.934;10.330;2023-04-27T06:51:02;99646.94;;;5.91;90.03
24762;BME280;12865;51.934;10.330;2023-04-27T06:53:48;99648.00;;;5.88;91.56
24762;BME280;12865;51.934;10.330;2023-04-27T06:56:34;99636.31;;;6.18;89.33
24762;BME280;12865;51.934;10.330;2023-04-27T06:59:20;99646.81;;;6.19;87.23
24762;BME280;12865;51.934;10.330;2023-04-27T07:02:06;99650.50;;;6.44;86.27
24762;BME280;12865;51.934;10.330;2023-04-27T07:04:52;99647.94;;;6.42;84.05
24762;BME280;12865;51.934;10.330;2023-04-27T07:07:37;99645.03;;;6.20;85.39
24762;BME280;12865;51.934;10.330;2023-04-27T07:10:23;99658.28;;;6.32;83.38
24762;BME280;12865;51.934;10.330;2023-04-27T07:13:09;99662.13;;;6.41;85.21
24762;BME280;12865;51.934;10.330;2023-04-27T07:15:55;99662.50;;;6.22;82.14
24762;BME280;12865;51.934;10.330;2023-04-27T07:18:42;99660.00;;;6.34;83.49
24762;BME280;12865;51.934;10.330;2023-04-27T07:21:28;99655.00;;;6.29;82.83
24762;BME280;12865;51.934;10.330;2023-04-27T07:24:14;99657.19;;;6.87;79.51
24762;BME280;12865;51.934;10.330;2023-04-27T07:26:59;99648.84;;;6.93;75.11
24762;BME280;12865;51.934;10.330;2023-04-27T07:29:46;99648.41;;;7.12;74.27
24762;BME280;12865;51.934;10.330;2023-04-27T07:32:32;99646.78;;;7.22;72.46
24762;BME280;12865;51.934;10.330;2023-04-27T07:35:18;99644.75;;;7.38;71.56
24762;BME280;12865;51.934;10.330;2023-04-27T07:38:03;99651.09;;;7.48;72.77
24762;BME280;12865;51.934;10.330;2023-04-27T07:40:50;99642.84;;;7.77;72.58
24762;BME280;12865;51.934;10.330;2023-04-27T07:43:35;99637.31;;;8.04;69.67
24762;BME280;12865;51.934;10.330;2023-04-27T07:46:21;99641.84;;;8.38;69.63
24762;BME280;12865;51.934;10.330;2023-04-27T07:49:07;99654.06;;;8.52;66.64
24762;BME280;12865;51.934;10.330;2023-04-27T07:51:52;99656.69;;;8.17;68.16
24762;BME280;12865;51.934;10.330;2023-04-27T07:54:38;99662.91;;;8.05;67.66
24762;BME280;12865;51.934;10.330;2023-04-27T07:57:24;99667.66;;;8.12;64.61
24762;BME280;12865;51.934;10.330;2023-04-27T08:00:10;99666.25;;;8.19;62.71
24762;BME280;12865;51.934;10.330;2023-04-27T08:02:57;99664.59;;;8.29;61.99
24762;BME280;12865;51.934;10.330;2023-04-27T08:05:43;99666.22;;;8.32;60.50
24762;BME280;12865;51.934;10.330;2023-04-27T08:08:28;99672.66;;;8.41;60.72
24762;BME280;12865;51.934;10.330;2023-04-27T08:11:14;99663.97;;;8.50;59.29
24762;BME280;12865;51.934;10.330;2023-04-27T08:14:00;99661.09;;;8.53;60.71
24762;BME280;12865;51.934;10.330;2023-04-27T08:16:46;99662.81;;;8.65;57.34
24762;BME280;12865;51.934;10.330;2023-04-27T08:19:31;99658.88;;;8.82;56.94
24762;BME280;12865;51.934;10.330;2023-04-27T08:22:17;99651.63;;;8.95;58.46
24762;BME280;12865;51.934;10.330;2023-04-27T08:27:30;99647.16;;;9.06;57.12
24762;BME280;12865;51.934;10.330;2023-04-27T08:30:16;99659.28;;;9.11;55.93
24762;BME280;12865;51.934;10.330;2023-04-27T08:33:02;99658.91;;;9.26;55.53
24762;BME280;12865;51.934;10.330;2023-04-27T08:35:47;99654.94;;;9.32;54.34
24762;BME280;12865;51.934;10.330;2023-04-27T08:38:34;99654.44;;;9.27;54.01
24762;BME280;12865;51.934;10.330;2023-04-27T08:41:21;99654.53;;;9.25;55.74
24762;BME280;12865;51.934;10.330;2023-04-27T08:44:07;99648.50;;;9.34;53.93
24762;BME280;12865;51.934;10.330;2023-04-27T08:46:53;99644.59;;;9.61;53.19
24762;BME280;12865;51.934;10.330;2023-04-27T08:49:38;99641.31;;;9.79;53.65
24762;BME280;12865;51.934;10.330;2023-04-27T08:52:27;99643.88;;;9.81;53.60
24762;BME280;12865;51.934;10.330;2023-04-27T08:55:13;99641.28;;;9.91;53.00
24762;BME280;12865;51.934;10.330;2023-04-27T08:57:59;99645.22;;;9.64;49.57
24762;BME280;12865;51.934;10.330;2023-04-27T09:00:45;99643.19;;;9.34;51.82
24762;BME280;12865;51.934;10.330;2023-04-27T09:03:32;99638.56;;;9.25;52.91
24762;BME280;12865;51.934;10.330;2023-04-27T09:06:28;99639.75;;;9.77;52.17
24762;BME280;12865;51.934;10.330;2023-04-27T09:09:21;99638.78;;;10.10;51.98
24762;BME280;12865;51.934;10.330;2023-04-27T09:12:20;99635.13;;;10.54;51.66
24762;BME280;12865;51.934;10.330;2023-04-27T09:15:07;99641.63;;;10.82;50.53
24762;BME280;12865;51.934;10.330;2023-04-27T09:17:54;99637.38;;;10.38;47.92
24762;BME280;12865;51.934;10.330;2023-04-27T09:20:48;99638.00;;;9.98;51.21
24762;BME280;12865;51.934;10.330;2023-04-27T09:23:36;99638.38;;;9.82;50.88
24762;BME280;12865;51.934;10.330;2023-04-27T09:26:24;99647.50;;;9.69;51.19
24762;BME280;12865;51.934;10.330;2023-04-27T09:29:10;99641.47;;;9.67;51.06
24762;BME280;12865;51.934;10.330;2023-04-27T09:31:56;99631.06;;;9.64;51.81
24762;BME280;12865;51.934;10.330;2023-04-27T09:34:41;99632.84;;;10.29;54.71
24762;BME280;12865;51.934;10.330;2023-04-27T09:37:28;99628.50;;;10.48;50.98
24762;BME280;12865;51.934;10.330;2023-04-27T09:40:14;99624.66;;;10.83;46.40
24762;BME280;12865;51.934;10.330;2023-04-27T09:43:00;99632.38;;;10.44;43.60
24762;BME280;12865;51.934;10.330;2023-04-27T09:45:47;99635.03;;;10.44;47.34
24762;BME280;12865;51.934;10.330;2023-04-27T09:48:32;99630.41;;;10.26;46.73
24762;BME280;12865;51.934;10.330;2023-04-27T09:51:18;99618.72;;;10.38;46.43
24762;BME280;12865;51.934;10.330;2023-04-27T09:54:04;99623.34;;;10.36;44.89
24762;BME280;12865;51.934;10.330;2023-04-27T10:03:15;99626.22;;;10.85;43.85
24762;BME280;12865;51.934;10.330;2023-04-27T10:09:21;99617.53;;;11.14;40.18
24762;BME280;12865;51.934;10.330;2023-04-27T10:12:26;99609.22;;;11.57;42.46
24762;BME280;12865;51.934;10.330;2023-04-27T10:15:14;99617.78;;;11.91;42.25
24762;BME280;12865;51.934;10.330;2023-04-27T10:18:03;99615.81;;;12.02;44.06
24762;BME280;12865;51.934;10.330;2023-04-27T10:20:49;99620.88;;;11.96;41.11
24762;BME280;12865;51.934;10.330;2023-04-27T10:23:50;99620.56;;;11.39;41.55
24762;BME280;12865;51.934;10.330;2023-04-27T10:26:36;99626.78;;;11.50;40.03
24762;BME280;12865;51.934;10.330;2023-04-27T10:29:43;99621.72;;;11.87;41.34
24762;BME280;12865;51.934;10.330;2023-04-27T10:32:30;99624.28;;;12.17;40.62
24762;BME280;12865;51.934;10.330;2023-04-27T10:35:16;99615.41;;;12.36;39.76
24762;BME280;12865;51.934;10.330;2023-04-27T10:38:05;99615.56;;;12.15;40.42
24762;BME280;12865;51.934;10.330;2023-04-27T10:40:57;99613.72;;;12.15;43.41
24762;BME280;12865;51.934;10.330;2023-04-27T10:43:46;99618.38;;;12.04;47.96
24762;BME280;12865;51.934;10.330;2023-04-27T10:46:34;99610.47;;;12.02;45.85
24762;BME280;12865;51.934;10.330;2023-04-27T10:49:21;99612.91;;;11.65;46.93
24762;BME280;12865;51.934;10.330;2023-04-27T10:52:07;99608.50;;;11.95;44.61
24762;BME280;12865;51.934;10.330;2023-04-27T10:54:53;99605.88;;;11.55;43.64
24762;BME280;12865;51.934;10.330;2023-04-27T10:58:08;99608.34;;;11.77;42.85
24762;BME280;12865;51.934;10.330;2023-04-27T11:00:54;99601.78;;;12.10;42.02
24762;BME280;12865;51.934;10.330;2023-04-27T11:03:40;99598.97;;;12.31;40.45
24762;BME280;12865;51.934;10.330;2023-04-27T11:06:27;99603.22;;;11.64;40.93
24762;BME280;12865;51.934;10.330;2023-04-27T11:09:25;99595.75;;;11.58;40.70
24762;BME280;12865;51.934;10.330;2023-04-27T11:12:11;99601.88;;;11.79;40.19
24762;BME280;12865;51.934;10.330;2023-04-27T11:14:58;99599.50;;;11.96;40.31
24762;BME280;12865;51.934;10.330;2023-04-27T11:17:44;99598.13;;;12.11;41.95
24762;BME280;12865;51.934;10.330;2023-04-27T11:20:30;99592.81;;;12.77;40.20
24762;BME280;12865;51.934;10.330;2023-04-27T11:23:26;99591.75;;;13.16;39.04
24762;BME280;12865;51.934;10.330;2023-04-27T11:26:20;99593.91;;;13.03;38.26
24762;BME280;12865;51.934;10.330;2023-04-27T11:29:07;99590.63;;;13.09;38.22
24762;BME280;12865;51.934;10.330;2023-04-27T11:31:55;99593.88;;;12.28;38.00
24762;BME280;12865;51.934;10.330;2023-04-27T11:34:48;99595.16;;;11.95;38.54
24762;BME280;12865;51.934;10.330;2023-04-27T11:37:34;99597.53;;;12.07;38.69
24762;BME280;12865;51.934;10.330;2023-04-27T11:40:19;99589.66;;;12.06;39.35
24762;BME280;12865;51.934;10.330;2023-04-27T11:43:11;99588.69;;;12.26;39.23
24762;BME280;12865;51.934;10.330;2023-04-27T11:45:57;99596.97;;;12.13;39.02
24762;BME280;12865;51.934;10.330;2023-04-27T11:48:43;99590.66;;;12.24;37.95
24762;BME280;12865;51.934;10.330;2023-04-27T11:51:30;99594.16;;;12.15;38.00
24762;BME280;12865;51.934;10.330;2023-04-27T11:54:17;99595.13;;;11.75;38.59
24762;BME280;12865;51.934;10.330;2023-04-27T11:57:04;99588.84;;;12.05;41.41
24762;BME280;12865;51.934;10.330;2023-04-27T11:59:50;99582.03;;;12.59;39.47
24762;BME280;12865;51.934;10.330;2023-04-27T12:02:37;99585.38;;;12.71;40.56
24762;BME280;12865;51.934;10.330;2023-04-27T12:05:22;99585.91;;;12.84;41.04
24762;BME280;12865;51.934;10.330;2023-04-27T12:08:08;99585.94;;;12.74;39.38
24762;BME280;12865;51.934;10.330;2023-04-27T12:10:54;99583.81;;;12.78;40.54
24762;BME280;12865;51.934;10.330;2023-04-27T12:13:40;99571.34;;;12.59;38.11
24762;BME280;12865;51.934;10.330;2023-04-27T12:16:26;99566.97;;;12.48;40.29
24762;BME280;12865;51.934;10.330;2023-04-27T12:19:11;99575.56;;;12.42;38.09
24762;BME280;12865;51.934;10.330;2023-04-27T12:21:57;99579.66;;;12.27;38.39
24762;BME280;12865;51.934;10.330;2023-04-27T12:24:43;99571.25;;;12.88;39.18
24762;BME280;12865;51.934;10.330;2023-04-27T12:27:29;99571.63;;;13.40;37.36
24762;BME280;12865;51.934;10.330;2023-04-27T12:30:15;99564.72;;;13.64;36.80
24762;BME280;12865;51.934;10.330;2023-04-27T12:33:01;99562.25;;;13.53;36.17
24762;BME280;12865;51.934;10.330;2023-04-27T12:35:53;99567.78;;;13.52;34.89
24762;BME280;12865;51.934;10.330;2023-04-27T12:38:40;99571.03;;;13.46;34.46
24762;BME280;12865;51.934;10.330;2023-04-27T12:41:26;99570.72;;;13.12;35.62
24762;BME280;12865;51.934;10.330;2023-04-27T12:44:12;99559.31;;;13.19;36.90
24762;BME280;12865;51.934;10.330;2023-04-27T12:46:58;99564.38;;;13.50;36.29
24762;BME280;12865;51.934;10.330;2023-04-27T12:49:44;99568.53;;;13.44;36.73
24762;BME280;12865;51.934;10.330;2023-04-27T12:52:29;99562.97;;;13.28;38.30
24762;BME280;12865;51.934;10.330;2023-04-27T12:55:16;99552.97;;;13.48;37.83
24762;BME280;12865;51.934;10.330;2023-04-27T12:58:02;99559.09;;;13.03;37.53
24762;BME280;12865;51.934;10.330;2023-04-27T13:00:49;99551.03;;;13.40;38.18
24762;BME280;12865;51.934;10.330;2023-04-27T13:03:34;99558.31;;;13.30;37.71
24762;BME280;12865;51.934;10.330;2023-04-27T13:06:21;99550.84;;;13.51;38.54
24762;BME280;12865;51.934;10.330;2023-04-27T13:09:09;99553.09;;;13.91;37.22
24762;BME280;12865;51.934;10.330;2023-04-27T13:11:55;99551.44;;;14.08;36.74
24762;BME280;12865;51.934;10.330;2023-04-27T13:14:42;99552.88;;;13.85;35.92
24762;BME280;12865;51.934;10.330;2023-04-27T13:17:30;99543.75;;;14.13;35.95
24762;BME280;12865;51.934;10.330;2023-04-27T13:20:16;99551.47;;;13.08;36.98
24762;BME280;12865;51.934;10.330;2023-04-27T13:23:03;99549.72;;;13.26;37.11
24762;BME280;12865;51.934;10.330;2023-04-27T13:25:49;99541.59;;;13.81;36.51
24762;BME280;12865;51.934;10.330;2023-04-27T13:28:34;99553.09;;;14.27;38.18
24762;BME280;12865;51.934;10.330;2023-04-27T13:31:20;99564.56;;;14.80;36.37
24762;BME280;12865;51.934;10.330;2023-04-27T13:34:06;99551.94;;;14.47;36.58
24762;BME280;12865;51.934;10.330;2023-04-27T13:36:52;99552.56;;;14.41;36.75
24762;BME280;12865;51.934;10.330;2023-04-27T13:39:38;99557.09;;;14.66;35.31
24762;BME280;12865;51.934;10.330;2023-04-27T13:42:24;99558.00;;;14.49;35.01
24762;BME280;12865;51.934;10.330;2023-04-27T13:45:13;99553.19;;;13.99;34.89
24762;BME280;12865;51.934;10.330;2023-04-27T13:47:59;99552.41;;;14.42;36.44
24762;BME280;12865;51.934;10.330;2023-04-27T13:50:45;99551.50;;;14.77;34.43
24762;BME280;12865;51.934;10.330;2023-04-27T13:53:31;99555.47;;;14.47;34.74
24762;BME280;12865;51.934;10.330;2023-04-27T13:56:16;99543.09;;;14.37;34.96
24762;BME280;12865;51.934;10.330;2023-04-27T13:59:02;99543.63;;;14.14;35.12
24762;BME280;12865;51.934;10.330;2023-04-27T14:01:48;99552.56;;;14.05;35.17
24762;BME280;12865;51.934;10.330;2023-04-27T14:04:34;99542.75;;;13.61;36.62
24762;BME280;12865;51.934;10.330;2023-04-27T14:07:20;99538.47;;;14.03;36.72
24762;BME280;12865;51.934;10.330;2023-04-27T14:10:06;99542.13;;;14.56;34.69
24762;BME280;12865;51.934;10.330;2023-04-27T14:12:52;99539.50;;;14.64;34.60
24762;BME280;12865;51.934;10.330;2023-04-27T14:15:37;99529.78;;;14.97;36.41
24762;BME280;12865;51.934;10.330;2023-04-27T14:18:23;99527.81;;;15.07;36.03
24762;BME280;12865;51.934;10.330;2023-04-27T14:21:09;99527.03;;;14.88;34.50
24762;BME280;12865;51.934;10.330;2023-04-27T14:23:54;99531.56;;;14.88;34.63
24762;BME280;12865;51.934;10.330;2023-04-27T14:26:40;99537.19;;;14.51;33.90
24762;BME280;12865;51.934;10.330;2023-04-27T14:29:29;99531.38;;;14.81;34.39
24762;BME280;12865;51.934;10.330;2023-04-27T14:32:15;99531.63;;;14.96;35.35
24762;BME280;12865;51.934;10.330;2023-04-27T14:35:01;99518.50;;;15.27;33.05
24762;BME280;12865;51.934;10.330;2023-04-27T14:37:47;99520.56;;;14.99;34.94
24762;BME280;12865;51.934;10.330;2023-04-27T14:40:33;99511.91;;;15.13;33.96
24762;BME280;12865;51.934;10.330;2023-04-27T14:43:18;99511.06;;;15.21;33.90
24762;BME280;12865;51.934;10.330;2023-04-27T14:46:04;99517.47;;;15.20;34.07